createdAt,value
2022-11-23T00:01:28.578Z,26.20
2022-11-23T00:03:57.567Z,23.27
2022-11-23T00:06:25.399Z,37.92
2022-11-23T00:08:53.414Z,25.52
2022-11-23T00:11:21.476Z,24.27
2022-11-23T00:13:48.086Z,26.48
2022-11-23T00:16:20.370Z,21.67
2022-11-23T00:18:47.379Z,17.83
2022-11-23T00:21:16.126Z,22.77
2022-11-23T00:23:43.312Z,17.58
2022-11-23T00:26:10.445Z,24.48
2022-11-23T00:28:39.812Z,32.90
2022-11-23T00:31:11.368Z,22.08
2022-11-23T00:33:38.563Z,20.88
2022-11-23T00:36:08.915Z,21.40
2022-11-23T00:38:35.595Z,18.33
2022-11-23T00:41:05.132Z,26.83
2022-11-23T00:43:32.123Z,16.05
2022-11-23T00:46:07.510Z,20.15
2022-11-23T00:48:34.086Z,18.45
2022-11-23T00:51:02.954Z,18.05
2022-11-23T00:53:29.782Z,26.10
2022-11-23T00:55:57.491Z,21.98
2022-11-23T00:58:25.370Z,18.75
2022-11-23T01:01:07.708Z,12.60
2022-11-23T01:03:34.479Z,23.00
2022-11-23T01:06:10.446Z,23.90
2022-11-23T01:08:38.001Z,19.27
2022-11-23T01:11:08.391Z,19.35
2022-11-23T01:13:36.824Z,16.30
2022-11-23T01:16:03.667Z,30.00
2022-11-23T01:18:30.335Z,26.42
2022-11-23T01:20:57.289Z,13.63
2022-11-23T01:23:23.958Z,16.75
2022-11-23T01:25:55.681Z,26.48
2022-11-23T01:28:23.651Z,18.90
2022-11-23T01:30:50.245Z,19.20
2022-11-23T01:33:17.243Z,16.40
2022-11-23T01:35:44.130Z,16.15
2022-11-23T01:38:16.657Z,12.45
2022-11-23T01:40:44.904Z,16.15
2022-11-23T01:43:16.407Z,16.10
2022-11-23T01:45:56.833Z,17.88
2022-11-23T01:48:36.652Z,16.00
2022-11-23T01:51:06.916Z,12.30
2022-11-23T01:53:34.088Z,9.73
2022-11-23T01:56:04.636Z,11.25
2022-11-23T01:58:36.732Z,17.08
2022-11-23T02:01:03.594Z,19.50
2022-11-23T02:03:32.027Z,15.80
2022-11-23T02:06:04.849Z,13.38
2022-11-23T02:08:31.914Z,10.60
2022-11-23T02:10:58.950Z,16.80
2022-11-23T02:13:27.565Z,13.63
2022-11-23T02:15:55.848Z,23.60
2022-11-23T02:18:29.110Z,16.27
2022-11-23T02:20:58.963Z,13.88
2022-11-23T02:23:50.193Z,15.55
2022-11-23T02:26:22.007Z,22.25
2022-11-23T02:28:56.439Z,15.98
2022-11-23T02:31:41.448Z,16.00
2022-11-23T02:36:36.812Z,14.57
2022-11-23T02:39:34.504Z,20.73
2022-11-23T02:42:01.747Z,13.32
2022-11-23T02:44:49.391Z,16.23
2022-11-23T02:47:16.125Z,16.92
2022-11-23T02:49:45.980Z,11.73
2022-11-23T02:52:13.207Z,19.00
2022-11-23T02:54:40.059Z,20.45
2022-11-23T02:57:06.949Z,19.15
2022-11-23T02:59:34.291Z,20.75
2022-11-23T03:02:03.137Z,23.65
2022-11-23T03:04:29.800Z,17.23
2022-11-23T03:06:57.195Z,24.65
2022-11-23T03:09:26.055Z,17.92
2022-11-23T03:11:53.381Z,19.42
2022-11-23T03:14:20.748Z,16.08
2022-11-23T03:16:47.448Z,18.80
2022-11-23T03:19:14.231Z,16.15
2022-11-23T03:21:40.868Z,18.55
2022-11-23T03:24:07.533Z,18.42
2022-11-23T03:26:34.211Z,11.93
2022-11-23T03:29:00.887Z,18.10
2022-11-23T03:31:27.522Z,30.58
2022-11-23T03:33:54.259Z,19.00
2022-11-23T03:36:20.827Z,21.52
2022-11-23T03:38:47.459Z,17.52
2022-11-23T03:41:14.107Z,18.70
2022-11-23T03:43:40.670Z,14.48
2022-11-23T03:46:07.310Z,13.05
2022-11-23T03:48:33.918Z,12.05
2022-11-23T03:51:00.518Z,14.05
2022-11-23T03:53:27.179Z,13.50
2022-11-23T03:55:56.258Z,18.70
2022-11-23T03:58:23.203Z,15.38
2022-11-23T04:00:50.224Z,21.50
2022-11-23T04:03:17.072Z,21.70
2022-11-23T04:05:43.803Z,24.38
2022-11-23T04:08:10.539Z,18.63
2022-11-23T04:10:37.381Z,15.52
2022-11-23T04:13:04.055Z,20.83
2022-11-23T04:15:30.755Z,20.00
2022-11-23T04:17:57.515Z,24.08
2022-11-23T04:20:24.194Z,18.42
2022-11-23T04:22:50.820Z,25.85
2022-11-23T04:25:18.013Z,21.40
2022-11-23T04:27:45.442Z,16.55
2022-11-23T04:30:12.868Z,17.15
2022-11-23T04:32:39.530Z,23.58
2022-11-23T04:35:06.394Z,15.82
2022-11-23T04:37:32.992Z,18.60
2022-11-23T04:39:59.689Z,19.23
2022-11-23T04:42:26.294Z,17.00
2022-11-23T04:44:52.866Z,18.27
2022-11-23T04:47:19.555Z,21.27
2022-11-23T04:49:46.194Z,27.05
2022-11-23T04:52:12.809Z,19.38
2022-11-23T04:54:39.383Z,11.00
2022-11-23T04:57:06.396Z,20.38
2022-11-23T04:59:33.249Z,16.55
2022-11-23T05:02:00.104Z,15.52
2022-11-23T05:04:26.991Z,18.60
2022-11-23T05:06:53.626Z,19.30
2022-11-23T05:09:20.479Z,18.65
2022-11-23T05:11:47.443Z,23.90
2022-11-23T05:14:14.353Z,10.27
2022-11-23T05:16:41.678Z,15.82
2022-11-23T05:19:08.572Z,20.23
2022-11-23T05:21:35.350Z,16.35
2022-11-23T05:24:02.156Z,16.23
2022-11-23T05:26:28.823Z,20.77
2022-11-23T05:28:55.387Z,12.90
2022-11-23T05:31:22.014Z,15.55
2022-11-23T05:33:48.687Z,23.17
2022-11-23T05:36:15.740Z,18.77
2022-11-23T05:38:42.813Z,18.17
2022-11-23T05:41:09.431Z,17.75
2022-11-23T05:43:35.991Z,19.55
2022-11-23T05:46:02.957Z,18.70
2022-11-23T05:48:29.829Z,12.20
2022-11-23T05:51:02.160Z,11.73
2022-11-23T05:53:31.803Z,28.98
2022-11-23T05:56:02.287Z,14.98
2022-11-23T05:58:29.189Z,11.23
2022-11-23T06:01:00.270Z,14.05
2022-11-23T06:03:27.882Z,6.93
2022-11-23T06:05:54.519Z,8.68
2022-11-23T06:08:21.179Z,16.23
2022-11-23T06:10:47.829Z,9.43
2022-11-23T06:13:14.405Z,15.55
2022-11-23T06:15:41.039Z,6.32
2022-11-23T06:18:07.651Z,11.55
2022-11-23T06:20:34.210Z,13.50
2022-11-23T06:23:00.886Z,8.45
2022-11-23T06:25:27.614Z,8.32
2022-11-23T06:27:59.618Z,18.48
2022-11-23T06:30:28.412Z,13.43
2022-11-23T06:32:55.320Z,21.10
2022-11-23T06:35:22.402Z,17.40
2022-11-23T06:37:50.511Z,8.63
2022-11-23T06:40:17.848Z,10.48
2022-11-23T06:42:44.565Z,6.07
2022-11-23T06:45:11.915Z,12.90
2022-11-23T06:47:38.786Z,6.95
2022-11-23T06:50:06.268Z,12.95
2022-11-23T06:52:33.023Z,13.30
2022-11-23T06:54:59.658Z,16.48
2022-11-23T06:57:26.415Z,11.50
2022-11-23T06:59:53.001Z,19.25
2022-11-23T07:02:19.603Z,17.00
2022-11-23T07:04:46.304Z,14.30
2022-11-23T07:07:12.998Z,9.85
2022-11-23T07:09:39.727Z,6.97
2022-11-23T07:12:06.633Z,8.95
2022-11-23T07:14:33.226Z,14.27
2022-11-23T07:16:59.860Z,15.52
2022-11-23T07:19:26.483Z,8.13
2022-11-23T07:21:53.139Z,12.07
2022-11-23T07:24:19.741Z,6.07
2022-11-23T07:26:46.790Z,20.13
2022-11-23T07:29:13.587Z,7.72
2022-11-23T07:31:40.267Z,17.52
2022-11-23T07:34:09.206Z,12.75
2022-11-23T07:36:35.941Z,15.60
2022-11-23T07:39:03.429Z,21.45
2022-11-23T07:41:30.137Z,10.65
2022-11-23T07:43:56.746Z,18.13
2022-11-23T07:46:23.403Z,7.45
2022-11-23T07:48:50.246Z,5.78
2022-11-23T07:51:19.535Z,10.57
2022-11-23T07:53:47.239Z,20.27
2022-11-23T07:56:13.888Z,14.38
2022-11-23T07:58:40.530Z,21.17
2022-11-23T08:01:07.225Z,18.00
2022-11-23T08:03:34.184Z,6.95
2022-11-23T08:06:00.911Z,19.00
2022-11-23T08:08:27.839Z,17.55
2022-11-23T08:10:54.875Z,18.02
2022-11-23T08:13:22.684Z,16.52
2022-11-23T08:15:54.960Z,7.43
2022-11-23T08:18:23.439Z,19.38
2022-11-23T08:20:50.584Z,22.30
2022-11-23T08:23:17.290Z,12.02
2022-11-23T08:25:44.449Z,23.00
2022-11-23T08:28:11.757Z,9.68
2022-11-23T08:30:38.855Z,9.85
2022-11-23T08:33:09.599Z,17.95
2022-11-23T08:35:38.023Z,9.02
2022-11-23T08:38:05.807Z,20.58
2022-11-23T08:40:33.277Z,20.13
2022-11-23T08:43:00.014Z,16.63
2022-11-23T08:45:27.017Z,15.82
2022-11-23T08:47:55.675Z,19.45
2022-11-23T08:50:22.514Z,8.70
2022-11-23T08:52:58.241Z,12.20
2022-11-23T08:55:26.454Z,20.17
2022-11-23T08:57:57.835Z,7.72
2022-11-23T09:00:25.679Z,17.02
2022-11-23T09:02:52.439Z,18.67
2022-11-23T09:05:19.188Z,7.78
2022-11-23T09:07:45.909Z,9.45
2022-11-23T09:10:17.700Z,12.98
2022-11-23T09:12:45.150Z,13.85
2022-11-23T09:15:12.170Z,16.33
2022-11-23T09:17:38.831Z,11.23
2022-11-23T09:20:06.137Z,18.58
2022-11-23T09:22:32.770Z,7.40
2022-11-23T09:24:59.401Z,10.70
2022-11-23T09:27:26.198Z,9.70
2022-11-23T09:29:52.923Z,11.73
2022-11-23T09:32:19.632Z,14.48
2022-11-23T09:34:46.444Z,11.13
2022-11-23T09:37:13.728Z,11.70
2022-11-23T09:39:40.381Z,11.55
2022-11-23T09:42:31.842Z,5.60
2022-11-23T09:45:08.706Z,10.10
2022-11-23T09:47:57.126Z,9.27
2022-11-23T09:50:42.317Z,4.15
2022-11-23T09:53:16.041Z,11.73
2022-11-23T09:55:44.854Z,6.63
2022-11-23T09:58:17.890Z,8.68
2022-11-23T10:01:02.299Z,14.07
2022-11-23T10:03:32.924Z,10.38
2022-11-23T10:06:06.327Z,15.95
2022-11-23T10:08:41.365Z,11.10
2022-11-23T10:11:30.887Z,13.50
2022-11-23T10:14:30.253Z,14.40
2022-11-23T10:17:03.019Z,11.43
2022-11-23T10:19:51.434Z,3.67
2022-11-23T10:22:41.297Z,12.43
2022-11-23T10:25:36.105Z,10.55
2022-11-23T10:28:14.045Z,11.50
2022-11-23T10:30:41.125Z,10.90
2022-11-23T10:34:00.880Z,3.95
2022-11-23T10:36:27.599Z,14.00
2022-11-23T10:39:01.915Z,7.63
2022-11-23T10:41:30.823Z,9.70
2022-11-23T10:44:09.485Z,10.30
2022-11-23T10:46:37.216Z,12.25
2022-11-23T10:49:24.086Z,7.97
2022-11-23T10:51:59.821Z,9.35
2022-11-23T10:54:36.981Z,11.90
2022-11-23T10:57:22.243Z,16.20
2022-11-23T11:02:26.833Z,3.90
2022-11-23T11:05:14.170Z,10.80
2022-11-23T11:07:41.083Z,3.05
2022-11-23T11:10:33.578Z,10.70
2022-11-23T11:13:00.199Z,9.32
2022-11-23T11:15:27.000Z,10.95
2022-11-23T11:17:59.159Z,10.25
2022-11-23T11:20:28.477Z,13.70
2022-11-23T11:23:22.362Z,7.43
2022-11-23T11:25:50.751Z,11.57
2022-11-23T11:28:36.151Z,9.70
2022-11-23T11:31:29.476Z,7.95
2022-11-23T11:34:07.932Z,7.45
2022-11-23T11:36:40.756Z,5.22
2022-11-23T11:39:19.453Z,7.97
2022-11-23T11:41:48.870Z,5.40
2022-11-23T11:44:24.264Z,8.98
2022-11-23T11:47:01.541Z,5.15
2022-11-23T11:49:42.637Z,5.75
2022-11-23T11:52:15.295Z,6.80
2022-11-23T11:54:56.217Z,11.88
2022-11-23T11:57:30.018Z,8.88
2022-11-23T11:59:58.340Z,7.20
2022-11-23T12:02:29.799Z,5.95
2022-11-23T12:05:05.386Z,6.30
2022-11-23T12:07:38.696Z,6.45
2022-11-23T12:10:24.133Z,10.30
2022-11-23T12:12:52.079Z,4.18
2022-11-23T12:15:49.591Z,9.73
2022-11-23T12:18:39.047Z,6.45
2022-11-23T12:21:44.853Z,6.00
2022-11-23T12:27:05.659Z,3.30
2022-11-23T12:30:20.080Z,4.95
2022-11-23T12:33:20.282Z,6.95
2022-11-23T12:36:23.780Z,6.78
2022-11-23T12:38:53.743Z,5.90
2022-11-23T12:42:01.065Z,6.07
2022-11-23T12:45:05.899Z,4.90
2022-11-23T12:47:58.339Z,8.68
2022-11-23T12:50:45.349Z,5.43
2022-11-23T12:53:34.071Z,6.70
2022-11-23T12:56:18.506Z,9.77
2022-11-23T12:58:47.970Z,5.68
2022-11-23T13:01:33.377Z,12.73
2022-11-23T13:04:34.107Z,10.25
2022-11-23T13:07:35.254Z,5.93
2022-11-23T13:10:06.520Z,7.38
2022-11-23T13:12:49.663Z,6.95
2022-11-23T13:15:38.535Z,6.43
2022-11-23T13:18:22.542Z,5.38
2022-11-23T13:21:07.761Z,6.05
2022-11-23T13:23:39.188Z,6.47
2022-11-23T13:26:16.187Z,10.05
2022-11-23T13:28:43.234Z,6.07
2022-11-23T13:31:16.106Z,5.40
2022-11-23T13:33:45.391Z,9.98
2022-11-23T13:36:56.598Z,5.28
2022-11-23T13:39:51.873Z,10.05
2022-11-23T13:42:19.462Z,3.67
2022-11-23T13:44:46.066Z,3.13
2022-11-23T13:47:16.304Z,6.28
2022-11-23T13:49:49.421Z,9.32
2022-11-23T13:52:22.367Z,8.43
2022-11-23T13:55:10.671Z,8.10
2022-11-23T13:57:39.823Z,4.50
2022-11-23T14:00:44.408Z,6.57
2022-11-23T14:03:42.776Z,8.02
2022-11-23T14:06:48.184Z,6.38
2022-11-23T14:09:33.147Z,6.40
2022-11-23T14:12:11.912Z,8.90
2022-11-23T14:14:56.361Z,3.58
2022-11-23T14:17:41.761Z,4.50
2022-11-23T14:20:31.693Z,6.63
2022-11-23T14:23:29.191Z,3.80
2022-11-23T14:26:27.016Z,6.93
2022-11-23T14:29:27.394Z,6.82
2022-11-23T14:32:24.387Z,8.07
2022-11-23T14:35:14.809Z,6.20
2022-11-23T14:38:05.382Z,6.28
2022-11-23T14:40:48.224Z,7.80
2022-11-23T14:43:19.401Z,6.63
2022-11-23T14:45:47.439Z,6.63
2022-11-23T14:48:32.021Z,7.88
2022-11-23T14:51:11.147Z,3.85
2022-11-23T14:53:47.427Z,6.65
2022-11-23T14:56:34.004Z,6.32
2022-11-23T14:59:30.714Z,5.70
2022-11-23T15:02:03.003Z,5.30
2022-11-23T15:04:35.244Z,7.22
2022-11-23T15:07:19.256Z,6.88
2022-11-23T15:09:54.238Z,11.70
2022-11-23T15:12:29.699Z,4.57
2022-11-23T15:14:57.685Z,9.35
2022-11-23T15:17:25.139Z,2.78
2022-11-23T15:19:59.539Z,6.13
2022-11-23T15:22:28.227Z,3.08
2022-11-23T15:25:05.342Z,2.70
2022-11-23T15:27:32.024Z,3.05
2022-11-23T15:30:00.045Z,4.10
2022-11-23T15:32:31.924Z,4.22
2022-11-23T15:35:04.579Z,2.80
2022-11-23T15:37:32.565Z,6.15
2022-11-23T15:39:59.760Z,5.65
2022-11-23T15:42:27.423Z,7.47
2022-11-23T15:44:55.110Z,3.03
2022-11-23T15:47:29.126Z,5.20
2022-11-23T15:50:03.898Z,1.85
2022-11-23T15:55:09.755Z,4.93
2022-11-23T15:57:37.869Z,4.55
2022-11-23T16:00:06.214Z,5.10
2022-11-23T16:02:32.977Z,4.68
2022-11-23T16:05:25.348Z,8.95
2022-11-23T16:08:00.441Z,7.13
2022-11-23T16:10:29.174Z,5.47
2022-11-23T16:12:56.994Z,3.70
2022-11-23T16:15:27.482Z,3.35
2022-11-23T16:17:54.486Z,4.68
2022-11-23T16:20:23.951Z,4.28
2022-11-23T16:22:51.560Z,3.58
2022-11-23T16:25:39.095Z,13.32
2022-11-23T16:28:14.968Z,7.28
2022-11-23T16:30:44.050Z,4.68
2022-11-23T16:33:16.497Z,7.38
2022-11-23T16:35:43.760Z,6.10
2022-11-23T16:38:12.522Z,9.52
2022-11-23T16:40:40.021Z,6.13
2022-11-23T16:43:06.938Z,9.50
2022-11-23T16:45:33.671Z,5.45
2022-11-23T16:48:02.418Z,6.10
2022-11-23T16:50:34.245Z,6.20
2022-11-23T16:53:09.003Z,7.65
2022-11-23T16:58:15.216Z,7.72
2022-11-23T17:00:42.191Z,5.43
2022-11-23T17:03:14.403Z,9.05
2022-11-23T17:05:41.086Z,8.45
2022-11-23T17:08:07.798Z,9.27
2022-11-23T17:10:36.520Z,9.60
2022-11-23T17:13:05.884Z,5.88
2022-11-23T17:15:32.883Z,6.15
2022-11-23T17:17:59.497Z,8.18
2022-11-23T17:20:26.131Z,8.57
2022-11-23T17:22:52.924Z,4.68
2022-11-23T17:25:19.526Z,9.30
2022-11-23T17:27:46.257Z,6.57
2022-11-23T17:30:19.305Z,9.48
2022-11-23T17:32:47.762Z,4.15
2022-11-23T17:35:14.534Z,10.88
2022-11-23T17:37:42.040Z,9.80
2022-11-23T17:40:16.752Z,7.88
2022-11-23T17:45:11.115Z,11.50
2022-11-23T17:47:38.393Z,4.95
2022-11-23T17:50:07.188Z,5.85
2022-11-23T17:52:33.846Z,8.00
2022-11-23T17:55:00.475Z,10.10
2022-11-23T17:57:27.658Z,9.02
2022-11-23T17:59:55.515Z,9.45
2022-11-23T18:02:24.036Z,12.10
2022-11-23T18:04:50.707Z,14.13
2022-11-23T18:07:17.537Z,15.10
2022-11-23T18:09:44.189Z,10.15
2022-11-23T18:12:10.917Z,9.52
2022-11-23T18:14:37.563Z,11.68
2022-11-23T18:17:04.251Z,8.30
2022-11-23T18:19:31.212Z,6.78
2022-11-23T18:21:58.094Z,10.38
2022-11-23T18:24:24.800Z,8.13
2022-11-23T18:26:51.491Z,10.30
2022-11-23T18:29:18.098Z,6.72
2022-11-23T18:31:44.819Z,9.30
2022-11-23T18:34:11.571Z,10.60
2022-11-23T18:36:38.349Z,10.70
2022-11-23T18:39:05.147Z,8.45
2022-11-23T18:41:32.052Z,11.77
2022-11-23T18:43:58.740Z,8.40
2022-11-23T18:46:26.472Z,13.82
2022-11-23T18:48:53.448Z,4.70
2022-11-23T18:51:20.079Z,11.88
2022-11-23T18:53:47.704Z,6.78
2022-11-23T18:56:14.795Z,10.43
2022-11-23T18:58:43.583Z,12.65
2022-11-23T19:01:17.650Z,5.80
2022-11-23T19:03:45.804Z,11.82
2022-11-23T19:06:14.015Z,7.07
2022-11-23T19:08:46.076Z,9.40
2022-11-23T19:11:19.555Z,12.07
2022-11-23T19:13:48.526Z,8.55
2022-11-23T19:16:23.750Z,20.73
2022-11-23T19:18:55.160Z,12.20
2022-11-23T19:21:23.981Z,9.70
2022-11-23T19:23:52.607Z,13.75
2022-11-23T19:26:20.020Z,10.55
2022-11-23T19:28:46.989Z,13.80
2022-11-23T19:31:16.292Z,11.98
2022-11-23T19:33:44.560Z,12.05
2022-11-23T19:36:13.523Z,15.35
2022-11-23T19:38:40.500Z,12.88
2022-11-23T19:41:07.381Z,18.20
2022-11-23T19:43:34.410Z,12.55
2022-11-23T19:46:03.482Z,12.32
2022-11-23T19:48:32.131Z,10.23
2022-11-23T19:51:01.370Z,9.73
2022-11-23T19:53:31.183Z,18.17
2022-11-23T19:56:06.214Z,15.07
2022-11-23T19:58:34.115Z,16.27
2022-11-23T20:01:00.785Z,16.38
2022-11-23T20:03:27.424Z,14.27
2022-11-23T20:05:59.509Z,17.48
2022-11-23T20:08:26.477Z,9.80
2022-11-23T20:10:53.321Z,17.23
2022-11-23T20:13:20.203Z,19.30
2022-11-23T20:15:48.483Z,19.77
2022-11-23T20:18:19.005Z,18.45
2022-11-23T20:20:47.287Z,11.93
2022-11-23T20:23:14.790Z,16.15
2022-11-23T20:25:42.551Z,15.55
2022-11-23T20:28:12.987Z,13.10
2022-11-23T20:30:40.755Z,27.33
2022-11-23T20:33:07.553Z,18.90
2022-11-23T20:35:34.534Z,27.73
2022-11-23T20:38:01.128Z,12.45
2022-11-23T20:40:27.890Z,12.63
2022-11-23T20:42:58.051Z,18.33
2022-11-23T20:45:25.565Z,18.20
2022-11-23T20:47:55.327Z,24.77
2022-11-23T20:50:26.854Z,17.65
2022-11-23T20:53:03.653Z,29.20
2022-11-23T20:55:31.920Z,18.92
2022-11-23T20:57:58.551Z,17.50
2022-11-23T21:00:25.249Z,17.95
2022-11-23T21:02:53.847Z,17.02
2022-11-23T21:05:21.465Z,19.60
2022-11-23T21:07:48.883Z,14.75
2022-11-23T21:10:35.180Z,29.42
2022-11-23T21:13:20.673Z,22.17
2022-11-23T21:15:47.371Z,23.52
2022-11-23T21:18:14.773Z,14.15
2022-11-23T21:20:43.288Z,19.35
2022-11-23T21:23:10.143Z,21.83
2022-11-23T21:25:36.781Z,21.10
2022-11-23T21:28:03.466Z,23.38
2022-11-23T21:30:30.764Z,23.48
2022-11-23T21:32:57.528Z,21.05
2022-11-23T21:35:24.270Z,17.50
2022-11-23T21:37:51.160Z,25.75
2022-11-23T21:40:17.895Z,22.25
2022-11-23T21:42:44.759Z,17.38
2022-11-23T21:45:11.946Z,36.22
2022-11-23T21:47:38.898Z,23.55
2022-11-23T21:50:06.023Z,19.70
2022-11-23T21:52:32.607Z,21.90
2022-11-23T21:54:59.187Z,20.05
2022-11-23T21:57:25.835Z,24.25
2022-11-23T21:59:52.464Z,23.52
2022-11-23T22:02:19.321Z,33.70
2022-11-23T22:04:45.998Z,26.00
2022-11-23T22:07:12.744Z,43.70
2022-11-23T22:09:39.400Z,29.48
2022-11-23T22:12:06.707Z,21.15
2022-11-23T22:14:33.679Z,32.30
2022-11-23T22:17:01.042Z,18.05
2022-11-23T22:19:27.774Z,40.25
2022-11-23T22:21:54.415Z,21.48
2022-11-23T22:24:22.575Z,19.02
2022-11-23T22:26:49.538Z,27.85
2022-11-23T22:29:16.514Z,11.25
2022-11-23T22:31:43.653Z,30.55
2022-11-23T22:34:12.895Z,31.55
2022-11-23T22:36:39.808Z,27.27
2022-11-23T22:39:07.926Z,17.38
2022-11-23T22:41:38.825Z,32.03
2022-11-23T22:44:10.110Z,19.67
2022-11-23T22:46:37.591Z,21.33
2022-11-23T22:49:04.599Z,32.53
2022-11-23T22:51:31.439Z,13.68
2022-11-23T22:53:59.846Z,14.68
2022-11-23T22:56:27.667Z,27.75
2022-11-23T22:58:54.449Z,25.75
2022-11-23T23:01:24.315Z,15.85
2022-11-23T23:04:03.440Z,9.90
2022-11-23T23:06:34.410Z,16.88
2022-11-23T23:09:01.843Z,9.18
2022-11-23T23:11:30.532Z,6.63
2022-11-23T23:13:58.019Z,19.67
2022-11-23T23:16:25.701Z,9.80
2022-11-23T23:18:55.547Z,8.98
2022-11-23T23:21:23.275Z,7.60
2022-11-23T23:23:52.273Z,12.80
2022-11-23T23:26:21.492Z,16.98
2022-11-23T23:28:48.995Z,19.23
2022-11-23T23:31:17.199Z,11.40
2022-11-23T23:33:45.088Z,13.80
2022-11-23T23:36:14.769Z,21.75
2022-11-23T23:38:41.692Z,10.05
2022-11-23T23:41:10.187Z,12.05
2022-11-23T23:43:37.499Z,15.88
2022-11-23T23:46:06.969Z,22.23
2022-11-23T23:48:35.737Z,13.82
2022-11-23T23:51:28.608Z,15.27
2022-11-23T23:53:57.530Z,17.10
2022-11-23T23:56:26.679Z,26.85
2022-11-23T23:58:56.703Z,20.83
